Time;durP1;ratioP1;P1;durP2;ratioP2;P2;SDS_P1;SDS_P2;PMS_P1;PMS_P2;Temp;Humidity;BMP_temperature;BMP_pressure;BME280_temperature;BME280_humidity;BME280_pressure;Samples;Min_cycle;Max_cycle;Signal;HPM_P1;HPM_P2
2021/09/02 00:00:57;;;;;;;;;;;10.10;99.90;;;;;;5156393;27;20086;-66
2021/09/02 00:03:23;;;;;;;17.05;8.00;;;10.10;99.90;;;;;;5164697;27;19950;-66
2021/09/02 00:05:48;;;;;;;;;;;10.00;99.90;;;;;;5165548;27;20035;-65
2021/09/02 00:08:14;;;;;;;16.77;8.00;;;10.00;99.90;;;;;;5164445;27;20137;-66
2021/09/02 00:10:39;;;;;;;;;;;10.00;99.90;;;;;;5168989;27;20447;-66
2021/09/02 00:13:05;;;;;;;17.42;7.82;;;10.00;99.90;;;;;;5165230;27;19915;-65
2021/09/02 00:15:30;;;;;;;;;;;10.00;99.90;;;;;;5155015;27;20057;-65
2021/09/02 00:17:56;;;;;;;15.82;8.38;;;10.00;99.90;;;;;;5135662;27;19915;-65
2021/09/02 00:20:21;;;;;;;;;;;9.90;99.90;;;;;;5130976;27;20074;-65
2021/09/02 00:22:47;;;;;;;21.33;7.50;;;10.00;99.90;;;;;;5130274;27;20302;-64
2021/09/02 00:25:12;;;;;;;;;;;9.90;99.90;;;;;;5130794;27;20071;-65
2021/09/02 00:27:38;;;;;;;17.10;7.40;;;9.80;99.90;;;;;;5127142;27;19915;-65
2021/09/02 00:30:04;;;;;;;;;;;9.90;99.90;;;;;;5138663;27;20071;-64
2021/09/02 00:32:30;;;;;;;14.00;6.85;;;9.80;99.90;;;;;;5150560;27;19972;-64
2021/09/02 00:34:56;;;;;;;;;;;9.80;99.90;;;;;;5150983;27;20444;-65
2021/09/02 00:37:21;;;;;;;13.05;7.50;;;9.80;99.90;;;;;;5151106;27;19971;-65
2021/09/02 00:39:47;;;;;;;;;;;9.80;99.90;;;;;;5150980;27;20079;-65
2021/09/02 00:42:12;;;;;;;15.90;7.82;;;9.80;99.90;;;;;;5149798;27;20379;-65
2021/09/02 00:44:39;;;;;;;;;;;9.80;99.90;;;;;;5152791;27;20087;-64
2021/09/02 00:47:07;;;;;;;12.68;7.53;;;9.80;99.90;;;;;;5128703;27;19926;-66
2021/09/02 00:49:34;;;;;;;18.35;7.72;;;9.80;99.90;;;;;;5116028;27;20031;-65
2021/09/02 00:52:30;;;;;;;20.02;8.13;;;9.80;99.90;;;;;;5137855;27;20070;-65
2021/09/02 00:55:00;;;;;;;16.20;7.28;;;9.70;99.90;;;;;;5119914;22;20035;-65
2021/09/02 00:57:29;;;;;;;15.40;7.75;;;9.70;99.90;;;;;;5034088;28;20054;-64
2021/09/02 00:59:57;;;;;;;14.35;7.45;;;9.70;99.90;;;;;;5040960;22;20044;-65
2021/09/02 01:02:27;;;;;;;20.98;8.73;;;9.70;99.90;;;;;;5028800;28;20085;-65
2021/09/02 01:04:54;;;;;;;13.07;7.32;;;9.70;99.90;;;;;;5023169;28;20099;-65
2021/09/02 01:07:22;;;;;;;14.75;7.32;;;9.70;99.90;;;;;;5028808;28;20113;-65
2021/09/02 01:09:48;;;;;;;14.32;8.00;;;9.70;99.90;;;;;;5028667;28;20140;-65
2021/09/02 01:12:43;;;;;;;;;;;9.60;99.90;;;;;;5027471;28;20457;-65
2021/09/02 01:15:27;;;;;;;16.90;6.07;;;9.70;99.90;;;;;;5018602;28;19917;-65
2021/09/02 01:17:59;;;;;;;10.55;6.10;;;9.70;99.90;;;;;;5027046;28;20055;-65
2021/09/02 01:20:29;;;;;;;10.90;6.50;;;9.60;99.90;;;;;;5028357;28;20072;-65
2021/09/02 01:22:58;;;;;;;21.30;6.85;;;9.60;99.90;;;;;;5026684;28;20041;-65
2021/09/02 01:25:29;;;;;;;16.27;7.13;;;9.60;99.90;;;;;;5027690;28;20045;-65
2021/09/02 01:27:58;;;;;;;14.07;7.07;;;9.60;99.90;;;;;;5028101;28;20115;-64
2021/09/02 01:30:24;;;;;;;14.18;7.60;;;9.60;99.90;;;;;;5031243;28;20053;-65
2021/09/02 01:32:51;;;;;;;13.30;7.03;;;9.60;99.90;;;;;;5027382;28;20043;-65
2021/09/02 01:35:18;;;;;;;17.63;6.95;;;9.60;99.90;;;;;;5027766;28;20041;-65
2021/09/02 01:37:51;;;;;;;18.45;7.68;;;9.60;99.90;;;;;;5028998;28;20033;-65
2021/09/02 01:40:29;;;;;;;17.23;8.02;;;9.60;99.90;;;;;;5027566;28;20045;-65
2021/09/02 01:42:56;;;;;;;34.67;20.10;;;9.60;99.90;;;;;;5028346;28;20041;-65
2021/09/02 01:45:21;;;;;;;83.53;45.45;;;9.60;99.90;;;;;;5027852;28;20046;-66
2021/09/02 01:47:47;;;;;;;;;;;9.60;99.90;;;;;;5028487;28;20415;-65
2021/09/02 01:50:22;;;;;;;34.45;17.17;;;9.60;99.90;;;;;;5029049;28;19991;-66
2021/09/02 01:52:50;;;;;;;23.27;11.95;;;9.50;99.90;;;;;;5028371;28;20097;-65
2021/09/02 01:55:16;;;;;;;17.08;9.20;;;9.50;99.90;;;;;;5028391;28;20105;-65
2021/09/02 01:57:42;;;;;;;16.80;8.32;;;9.50;99.90;;;;;;5031519;28;20040;-65
2021/09/02 02:00:12;;;;;;;;;;;9.50;99.90;;;;;;5028459;28;20038;-65
2021/09/02 02:02:38;;;;;;;15.77;6.82;;;9.50;99.90;;;;;;5047607;28;19923;-65
2021/09/02 02:05:04;;;;;;;;;;;9.40;99.90;;;;;;5047732;28;20033;-65
2021/09/02 02:07:29;;;;;;;12.13;6.87;;;9.40;99.90;;;;;;5047923;28;19962;-65
2021/09/02 02:09:55;;;;;;;;;;;9.40;99.90;;;;;;5047010;28;20065;-65
2021/09/02 02:12:21;;;;;;;16.15;7.38;;;9.40;99.90;;;;;;5047192;28;19974;-65
2021/09/02 02:14:46;;;;;;;;;;;9.40;99.90;;;;;;5047781;28;20076;-65
2021/09/02 02:17:12;;;;;;;14.93;7.18;;;9.30;99.90;;;;;;5047756;28;19917;-65
2021/09/02 02:19:37;;;;;;;;;;;9.30;99.90;;;;;;5067500;28;20040;-64
2021/09/02 02:22:04;;;;;;;12.75;6.93;;;9.40;99.90;;;;;;5067003;28;20006;-65
2021/09/02 02:24:30;;;;;;;17.55;7.63;;;9.30;99.90;;;;;;5066569;28;20041;-65
2021/09/02 02:26:56;;;;;;;15.85;7.28;;;9.20;99.90;;;;;;5065390;28;20085;-65
2021/09/02 02:29:22;;;;;;;;;;;9.20;99.90;;;;;;5048933;28;20041;-64
2021/09/02 02:31:47;;;;;;;14.82;7.18;;;9.30;99.90;;;;;;5046994;28;19917;-65
2021/09/02 02:34:13;;;;;;;;;;;9.30;99.90;;;;;;5046656;28;20041;-65
2021/09/02 02:36:38;;;;;;;13.70;7.43;;;9.30;99.90;;;;;;5047483;28;20057;-65
2021/09/02 02:39:04;;;;;;;;;;;9.30;99.90;;;;;;5046571;28;20075;-65
2021/09/02 02:41:30;;;;;;;11.32;6.72;;;9.30;99.90;;;;;;5045819;28;20615;-65
2021/09/02 02:43:55;;;;;;;;;;;9.20;99.90;;;;;;5046575;28;20429;-65
2021/09/02 02:46:21;;;;;;;11.32;6.88;;;9.20;99.90;;;;;;5045706;28;19924;-65
2021/09/02 02:48:47;;;;;;;;;;;9.20;99.90;;;;;;5052190;28;20104;-65
2021/09/02 02:51:13;;;;;;;17.63;7.97;;;9.30;99.90;;;;;;5046508;28;19923;-65
2021/09/02 02:53:39;;;;;;;18.08;7.55;;;9.20;99.90;;;;;;5046337;28;20123;-65
2021/09/02 02:56:05;;;;;;;24.35;8.65;;;9.10;99.90;;;;;;5049895;28;20515;-65
2021/09/02 02:58:30;;;;;;;;;;;9.10;99.90;;;;;;5057908;28;20037;-65
2021/09/02 03:00:56;;;;;;;16.00;7.95;;;9.20;99.90;;;;;;5048415;28;19917;-65
2021/09/02 03:03:21;;;;;;;;;;;9.10;99.90;;;;;;5047168;28;20144;-65
2021/09/02 03:05:48;;;;;;;18.50;7.63;;;9.10;99.90;;;;;;5046909;28;19916;-65
2021/09/02 03:08:13;;;;;;;17.05;8.10;;;9.10;99.90;;;;;;5048075;28;20051;-65
2021/09/02 03:10:39;;;;;;;;;;;9.10;99.90;;;;;;5046369;28;20671;-64
2021/09/02 03:13:06;;;;;;;16.67;7.63;;;9.10;99.90;;;;;;5050144;28;19959;-62
2021/09/02 03:15:32;;;;;;;14.32;7.40;;;9.10;99.90;;;;;;5044356;28;20037;-62
2021/09/02 03:17:58;;;;;;;20.15;8.00;;;9.10;99.90;;;;;;5054595;28;20439;-62
2021/09/02 03:20:23;;;;;;;;;;;9.10;99.90;;;;;;5064882;22;20200;-64
2021/09/02 03:22:49;;;;;;;11.60;6.60;;;9.10;99.90;;;;;;5054377;28;19932;-64
2021/09/02 03:25:15;;;;;;;;;;;9.10;99.90;;;;;;5047853;28;20052;-64
2021/09/02 03:27:41;;;;;;;15.27;7.38;;;9.10;99.90;;;;;;5051056;28;20406;-63
2021/09/02 03:30:07;;;;;;;;;;;9.10;99.90;;;;;;5066159;28;20037;-64
2021/09/02 03:32:33;;;;;;;17.35;7.93;;;9.10;99.90;;;;;;5070904;28;19924;-64
2021/09/02 03:34:58;;;;;;;;;;;9.10;99.90;;;;;;5066742;28;20037;-64
2021/09/02 03:37:24;;;;;;;24.08;7.32;;;9.20;99.90;;;;;;5066980;28;19920;-64
2021/09/02 03:39:49;;;;;;;;;;;9.10;99.90;;;;;;5069416;28;20040;-65
2021/09/02 03:42:15;;;;;;;19.77;7.35;;;9.10;99.90;;;;;;5066545;28;19917;-64
2021/09/02 03:44:40;;;;;;;;;;;9.20;99.90;;;;;;5066090;28;20226;-64
2021/09/02 03:47:06;;;;;;;18.90;7.30;;;9.20;99.90;;;;;;5065468;28;19993;-64
2021/09/02 03:49:32;;;;;;;;;;;9.10;99.90;;;;;;5066565;28;20128;-64
2021/09/02 03:51:57;;;;;;;15.43;6.18;;;9.20;99.90;;;;;;5052514;28;19932;-64
2021/09/02 03:54:23;;;;;;;;;;;9.20;99.90;;;;;;5059646;28;20121;-64
2021/09/02 03:56:48;;;;;;;14.65;7.40;;;9.20;99.90;;;;;;5049567;28;19917;-64
2021/09/02 03:59:14;;;;;;;;;;;9.10;99.90;;;;;;5057910;28;20130;-64
2021/09/02 04:01:39;;;;;;;11.98;7.10;;;9.10;99.90;;;;;;5064378;28;19921;-64
2021/09/02 04:04:05;;;;;;;;;;;9.00;99.90;;;;;;5069737;28;20039;-64
2021/09/02 04:06:30;;;;;;;17.15;7.93;;;9.10;99.90;;;;;;5069265;28;19923;-63
2021/09/02 04:08:56;;;;;;;;;;;9.10;99.90;;;;;;5068698;28;20051;-64
2021/09/02 04:11:21;;;;;;;12.88;7.20;;;9.10;99.90;;;;;;5069221;28;19926;-64
2021/09/02 04:13:47;;;;;;;;;;;9.10;99.90;;;;;;5070607;28;20033;-65
2021/09/02 04:16:12;;;;;;;15.32;6.63;;;9.20;99.90;;;;;;5068309;28;20011;-62
2021/09/02 04:18:38;;;;;;;;;;;9.20;99.90;;;;;;5069191;28;20044;-62
2021/09/02 04:21:04;;;;;;;18.17;7.07;;;9.10;99.90;;;;;;5069285;28;20033;-63
2021/09/02 04:23:32;;;;;;;14.20;7.22;;;9.10;99.90;;;;;;5069709;28;20045;-63
2021/09/02 04:25:58;;;;;;;11.52;7.07;;;9.10;99.90;;;;;;5068624;28;20037;-62
2021/09/02 04:28:24;;;;;;;16.33;7.20;;;9.10;99.90;;;;;;5063301;28;20055;-63
2021/09/02 04:30:50;;;;;;;;;;;9.10;99.90;;;;;;5062798;28;20032;-63
2021/09/02 04:33:15;;;;;;;11.88;6.15;;;9.10;99.90;;;;;;5062846;28;20646;-62
2021/09/02 04:35:41;;;;;;;;;;;9.10;99.90;;;;;;5064095;28;20040;-63
2021/09/02 04:38:06;;;;;;;17.63;7.53;;;9.10;99.90;;;;;;5062155;22;19927;-62
2021/09/02 04:40:32;;;;;;;;;;;9.10;99.90;;;;;;5048654;28;20462;-62
2021/09/02 04:42:57;;;;;;;15.73;6.18;;;9.10;99.90;;;;;;5051152;28;19917;-62
2021/09/02 04:45:23;;;;;;;;;;;9.10;99.90;;;;;;5050049;28;20480;-62
2021/09/02 04:47:50;;;;;;;10.88;6.43;;;9.10;99.90;;;;;;5069010;28;19927;-62
2021/09/02 04:50:16;;;;;;;15.32;5.90;;;9.10;99.90;;;;;;5051765;28;20041;-62
2021/09/02 04:52:41;;;;;;;;;;;9.10;99.90;;;;;;5069670;28;20045;-62
2021/09/02 04:55:08;;;;;;;12.20;6.90;;;9.20;99.90;;;;;;5048705;28;19920;-63
2021/09/02 04:57:34;;;;;;;12.80;6.25;;;9.20;99.90;;;;;;5033496;28;20080;-63
2021/09/02 04:59:59;;;;;;;;;;;9.20;99.90;;;;;;5050985;28;20118;-62
2021/09/02 05:02:25;;;;;;;12.27;5.53;;;9.20;99.90;;;;;;5032032;28;20288;-62
2021/09/02 05:04:51;;;;;;;;;;;9.20;99.90;;;;;;5028919;28;20616;-62
2021/09/02 05:07:17;;;;;;;12.73;6.20;;;9.30;99.90;;;;;;5028110;28;19917;-62
2021/09/02 05:09:42;;;;;;;;;;;9.20;99.90;;;;;;5028024;28;20408;-62
2021/09/02 05:12:08;;;;;;;8.98;5.82;;;9.40;99.90;;;;;;5027895;28;19917;-62
2021/09/02 05:14:33;;;;;;;;;;;9.40;99.90;;;;;;5029236;28;20052;-62
2021/09/02 05:16:59;;;;;;;13.00;5.57;;;9.80;99.90;;;;;;5027884;28;19917;-61
2021/09/02 05:19:24;;;;;;;;;;;10.10;99.90;;;;;;5029688;28;20041;-62
2021/09/02 05:21:50;;;;;;;13.48;6.28;;;10.40;99.90;;;;;;5028682;28;19923;-64
2021/09/02 05:24:15;;;;;;;;;;;10.90;99.90;;;;;;5028948;28;20873;-62
2021/09/02 05:26:41;;;;;;;9.60;5.38;;;11.30;99.90;;;;;;5026505;28;20377;-64
2021/09/02 05:29:06;;;;;;;;;;;11.20;99.90;;;;;;5026401;28;20699;-63
2021/09/02 05:31:33;;;;;;;29.08;17.02;;;11.20;99.90;;;;;;5027172;28;20004;-63
2021/09/02 05:33:58;;;;;;;21.35;12.02;;;11.20;99.90;;;;;;5028749;28;20077;-62
2021/09/02 05:36:24;;;;;;;;;;;11.10;99.90;;;;;;5027845;28;20465;-63
2021/09/02 05:38:49;;;;;;;14.38;7.35;;;11.20;99.90;;;;;;5027546;28;19917;-62
2021/09/02 05:41:15;;;;;;;;;;;11.40;99.90;;;;;;5028361;28;20406;-65
2021/09/02 05:43:40;;;;;;;13.98;5.72;;;11.80;99.90;;;;;;5027755;28;19917;-65
2021/09/02 05:46:06;;;;;;;;;;;12.00;99.90;;;;;;5026606;28;20041;-65
2021/09/02 05:48:31;;;;;;;22.40;11.23;;;11.80;99.90;;;;;;5027647;28;19921;-65
2021/09/02 05:50:57;;;;;;;;;;;11.70;99.90;;;;;;5026468;28;20037;-66
2021/09/02 05:53:23;;;;;;;13.38;6.20;;;11.60;99.90;;;;;;5026933;28;19924;-65
2021/09/02 05:55:50;;;;;;;;;;;11.50;99.90;;;;;;5028108;28;20044;-63
2021/09/02 05:58:17;;;;;;;17.80;6.85;;;11.50;99.90;;;;;;5032820;28;19917;-63
2021/09/02 06:00:42;;;;;;;19.95;7.00;;;11.30;99.90;;;;;;5021680;28;20045;-63
2021/09/02 06:03:08;;;;;;;;;;;11.30;99.90;;;;;;5028849;28;20033;-61
2021/09/02 06:05:34;;;;;;;12.00;6.22;;;11.30;99.90;;;;;;5029400;28;19997;-62
2021/09/02 06:07:59;;;;;;;;;;;11.30;99.90;;;;;;5027886;28;20482;-62
2021/09/02 06:10:25;;;;;;;25.38;13.45;;;11.60;99.90;;;;;;5027245;28;19917;-62
2021/09/02 06:12:50;;;;;;;;;;;11.90;99.90;;;;;;5025759;28;20048;-63
2021/09/02 06:15:16;;;;;;;20.40;8.50;;;12.00;99.90;;;;;;5026232;28;19924;-64
2021/09/02 06:17:42;;;;;;;;;;;12.00;99.90;;;;;;5026234;28;20064;-64
2021/09/02 06:20:08;;;;;;;32.22;16.23;;;12.00;99.90;;;;;;5026933;28;19917;-63
2021/09/02 06:22:34;;;;;;;31.55;18.50;;;12.10;99.90;;;;;;5027687;28;20037;-64
2021/09/02 06:25:00;;;;;;;;;;;12.30;99.90;;;;;;5027056;28;20099;-62
2021/09/02 06:27:27;;;;;;;15.30;6.90;;;12.40;99.90;;;;;;5026154;28;19947;-64
2021/09/02 06:29:53;;;;;;;18.42;5.88;;;;;;;;;;5025742;28;20048;-64
2021/09/02 06:32:18;;;;;;;;;;;;;;;;;;5024052;28;20413;-63
2021/09/02 06:34:44;;;;;;;12.25;6.30;;;;;;;;;;5026624;28;19917;-63
2021/09/02 06:37:10;;;;;;;;;;;;;;;;;;5026011;28;20422;-61
2021/09/02 06:39:36;;;;;;;13.45;5.93;;;;;;;;;;5036004;28;19916;-65
2021/09/02 06:42:03;;;;;;;13.60;6.40;;;;;;;;;;5031658;28;20037;-62
2021/09/02 06:44:28;;;;;;;;;;;;;;;;;;5036871;28;20043;-62
2021/09/02 06:46:54;;;;;;;14.43;6.30;;;;;;;;;;5034720;28;20000;-61
2021/09/02 06:49:20;;;;;;;;;;;;;;;;;;5034813;28;20067;-62
2021/09/02 06:51:47;;;;;;;15.45;6.90;;;;;;;;;;5035949;28;19931;-63
2021/09/02 06:54:13;;;;;;;12.95;7.13;;;;;;;;;;5030781;28;20116;-61
2021/09/02 06:56:39;;;;;;;;;;;;;;;;;;5027923;28;20116;-63
2021/09/02 06:59:08;;;;;;;15.52;6.25;;;;;;;;;;5027893;28;19999;-64
2021/09/02 07:01:35;;;;;;;16.33;6.70;;;;;;;;;;5026342;28;20099;-64
2021/09/02 07:04:01;;;;;;;;;;;;;;;;;;5029380;28;20502;-62
2021/09/02 07:06:27;;;;;;;15.02;7.57;;;;;;;;;;5028616;28;19927;-62
2021/09/02 07:08:53;;;;;;;19.15;8.02;;;;;;;;;;5028103;28;20041;-64
2021/09/02 07:11:19;;;;;;;56.95;32.78;;;;;;;;;;5029957;28;20045;-63
2021/09/02 07:13:45;;;;;;;;;;;;;;;;;;5030501;28;20034;-64
2021/09/02 07:16:11;;;;;;;36.15;17.95;;;;;;;;;;5027890;28;20014;-63
2021/09/02 07:18:38;;;;;;;21.33;11.35;;;;;;;;;;5029116;28;20048;-68
2021/09/02 07:21:04;;;;;;;35.90;18.20;;;;;;;;;;5027976;28;20049;-64
2021/09/02 07:23:30;;;;;;;40.35;17.83;;;;;;;;;;5029432;28;20048;-65
2021/09/02 07:25:56;;;;;;;;;;;;;;;;;;5029950;28;20034;-64
2021/09/02 07:28:22;;;;;;;22.83;10.50;;;;;;;;;;5030371;28;19928;-64
2021/09/02 07:30:48;;;;;;;;;;;;;;;;;;5032636;28;20520;-65
2021/09/02 07:33:14;;;;;;;30.77;13.60;;;;;;;;;;5033017;28;20031;-63
2021/09/02 07:35:40;;;;;;;;;;;;;;;;;;5027580;28;20037;-64
2021/09/02 07:38:06;;;;;;;31.40;15.50;;;;;;;;;;5035094;28;20452;-63
2021/09/02 07:40:32;;;;;;;26.40;13.23;;;;;;;;;;5031991;28;20374;-64
2021/09/02 07:42:58;;;;;;;28.63;14.40;;;;;;;;;;5032375;28;20124;-63
2021/09/02 07:45:24;;;;;;;;;;;;;;;;;;5032620;28;20136;-63
2021/09/02 07:47:50;;;;;;;35.63;15.20;;;;;;;;;;5032253;28;19925;-63
2021/09/02 07:50:16;;;;;;;;;;;;;;;;;;5029689;28;20113;-64
2021/09/02 07:52:42;;;;;;;29.23;13.85;;;;;;;;;;5032061;28;20606;-64
2021/09/02 07:55:08;;;;;;;;;;;;;;;;;;5032496;28;20064;-63
2021/09/02 07:57:35;;;;;;;24.48;12.20;;;;;;;;;;5034260;28;19920;-64
2021/09/02 08:00:01;;;;;;;40.80;16.10;;;;;;;;;;5033973;28;20124;-64
2021/09/02 08:02:27;;;;;;;;;;;;;;;;;;5032378;28;20120;-64
2021/09/02 08:04:53;;;;;;;48.75;17.50;;;;;;;;;;5031197;28;19928;-64
2021/09/02 08:07:19;;;;;;;;;;;;;;;;;;5032365;28;20525;-65
2021/09/02 08:09:46;;;;;;;31.77;12.77;;;;;;;;;;5031137;28;19968;-65
2021/09/02 08:12:12;;;;;;;34.75;15.18;;;;;;;;;;5031654;28;20120;-65
2021/09/02 08:14:38;;;;;;;31.15;14.40;;;;;;;;;;5030007;28;20087;-64
2021/09/02 08:17:04;;;;;;;;;;;;;;;;;;5031020;28;20049;-63
2021/09/02 08:19:30;;;;;;;23.60;11.93;;;;;;;;;;5030455;28;19917;-64
2021/09/02 08:21:56;;;;;;;30.20;14.98;;;;;;;;;;5030749;28;20644;-65
2021/09/02 08:24:23;;;;;;;21.30;12.07;;;;;;;;;;5032031;28;20528;-65
2021/09/02 08:26:49;;;;;;;;;;;;;;;;;;5031395;28;20090;-65
2021/09/02 08:29:15;;;;;;;25.00;12.47;;;;;;;;;;5037514;28;19936;-64
2021/09/02 08:31:41;;;;;;;23.90;12.75;;;;;;;;;;5031813;28;20049;-65
2021/09/02 08:34:07;;;;;;;31.63;13.30;;;;;;;;;;5031941;28;20095;-65
2021/09/02 08:36:34;;;;;;;35.95;14.00;;;;;;;;;;5032553;28;20049;-64
2021/09/02 08:39:00;;;;;;;23.40;13.05;;;;;;;;;;5031315;28;20128;-64
2021/09/02 08:41:26;;;;;;;30.77;12.90;;;;;;;;;;5031603;28;20073;-64
2021/09/02 08:43:53;;;;;;;;;;;;;;;;;;5032488;28;20093;-65
2021/09/02 08:46:19;;;;;;;23.15;10.85;;;;;;;;;;5031616;28;19924;-64
2021/09/02 08:48:46;;;;;;;26.98;10.50;;;;;;;;;;5031954;28;20077;-64
2021/09/02 08:51:12;;;;;;;25.42;12.00;;;;;;;;;;5027382;28;20069;-64
2021/09/02 08:53:38;;;;;;;;;;;;;;;;;;5031255;28;20563;-64
2021/09/02 08:56:04;;;;;;;31.98;14.52;;;;;;;;;;5030103;28;19924;-64
2021/09/02 08:58:32;;;;;;;27.85;13.13;;;;;;;;;;5035668;28;20037;-64
2021/09/02 09:00:58;;;;;;;27.00;13.98;;;;;;;;;;5028825;28;20116;-64
2021/09/02 09:03:25;;;;;;;26.27;12.60;;;;;;;;;;5030368;28;20040;-64
2021/09/02 09:05:55;;;;;;;32.45;14.00;;;;;;;;;;5030116;28;20069;-64
2021/09/02 09:08:30;;;;;;;34.03;14.02;;;;;;;;;;5030044;28;20045;-63
2021/09/02 09:10:57;;;;;;;22.65;10.43;;;;;;;;;;5029745;28;20049;-63
2021/09/02 09:13:30;;;;;;;22.20;10.73;;;;;;;;;;5030526;28;20471;-64
2021/09/02 09:15:55;;;;;;;15.30;9.30;;;;;;;;;;5029040;28;20585;-63
2021/09/02 09:18:21;;;;;;;;;;;;;;;;;;5030077;28;20045;-64
2021/09/02 09:21:06;;;;;;;16.63;9.45;;;;;;;;;;5029899;28;20011;-64
2021/09/02 09:23:51;;;;;;;18.50;9.75;;;;;;;;;;5029813;28;20490;-64
2021/09/02 09:26:18;;;;;;;22.25;10.13;;;;;;;;;;5029599;28;20049;-64
2021/09/02 09:28:44;;;;;;;20.42;9.90;;;;;;;;;;5029173;28;20041;-65
2021/09/02 09:31:10;;;;;;;;;;;;;;;;;;5028797;28;20031;-64
2021/09/02 09:33:50;;;;;;;21.55;9.45;;;;;;;;;;5029042;28;19967;-63
2021/09/02 09:36:20;;;;;;;19.83;8.55;;;;;;;;;;5028503;28;20033;-63
2021/09/02 09:38:56;;;;;;;19.05;9.02;;;;;;;;;;5027570;28;20146;-64
2021/09/02 09:41:41;;;;;;;20.15;9.75;;;;;;;;;;5024603;28;20040;-64
2021/09/02 09:44:15;;;;;;;13.75;7.95;;;;;;;;;;5015702;28;20689;-63
2021/09/02 09:46:41;;;;;;;15.07;7.10;;;;;;;;;;5025194;28;20042;-64
2021/09/02 09:49:07;;;;;;;13.43;7.05;;;;;;;;;;5029344;28;20045;-65
2021/09/02 09:51:33;;;;;;;17.50;7.80;;;;;;;;;;5028703;28;20383;-63
2021/09/02 09:54:01;;;;;;;;;;;;;;;;;;5029436;28;20043;-64
2021/09/02 09:56:27;;;;;;;15.20;8.25;;;;;;;;;;5028529;28;20423;-64
2021/09/02 09:58:53;;;;;;;;;;;;;;;;;;5037182;28;20041;-64
2021/09/02 10:01:20;;;;;;;12.35;7.00;;;;;;;;;;5036636;28;20446;-64
2021/09/02 10:03:54;;;;;;;13.90;7.03;;;;;;;;;;5040587;28;20409;-63
2021/09/02 10:06:21;;;;;;;16.02;7.35;;;;;;;;;;5038364;28;20765;-64
2021/09/02 10:08:48;;;;;;;17.75;8.45;;;;;;;;;;5032548;28;20057;-65
2021/09/02 10:11:15;;;;;;;16.55;9.10;;;;;;;;;;5035296;28;20042;-64
2021/09/02 10:13:42;;;;;;;26.77;9.07;;;;;;;;;;5037773;28;20071;-64
2021/09/02 10:16:08;;;;;;;26.75;12.45;;;;;;;;;;5034916;28;20041;-66
2021/09/02 10:18:36;;;;;;;17.33;9.23;;;;;;;;;;5028824;28;20040;-65
2021/09/02 10:21:05;;;;;;;15.00;7.15;;;;;;;;;;5026807;28;20068;-65
2021/09/02 10:23:31;;;;;;;20.20;7.85;;;;;;;;;;5030582;28;20048;-64
2021/09/02 10:25:57;;;;;;;;;;;;;;;;;;5028043;28;20049;-64
2021/09/02 10:28:25;;;;;;;10.40;7.25;;;;;;;;;;5027922;28;20737;-64
2021/09/02 10:30:52;;;;;;;15.90;8.20;;;;;;;;;;5027651;28;20033;-65
2021/09/02 10:33:40;;;;;;;17.98;8.30;;;;;;;;;;5028056;28;20052;-65
2021/09/02 10:36:12;;;;;;;19.65;8.25;;;;;;;;;;5028146;28;20124;-64
2021/09/02 10:38:42;;;;;;;14.13;7.60;;;;;;;;;;5027821;28;20042;-63
2021/09/02 10:41:09;;;;;;;16.60;8.02;;;;;;;;;;5036383;28;20033;-63
2021/09/02 10:43:47;;;;;;;16.33;9.07;;;;;;;;;;5037953;28;20041;-63
2021/09/02 10:46:31;;;;;;;21.25;8.38;;;;;;;;;;5020177;28;20041;-63
2021/09/02 10:49:10;;;;;;;18.20;8.30;;;;;;;;;;5023703;28;20069;-62
2021/09/02 10:51:37;;;;;;;15.40;6.45;;;;;;;;;;5047821;28;20684;-62
2021/09/02 10:54:07;;;;;;;14.57;8.65;;;;;;;;;;5048003;28;20045;-62
2021/09/02 10:56:34;;;;;;;10.52;5.68;;;;;;;;;;5031901;28;20042;-63
2021/09/02 10:59:02;;;;;;;11.85;6.65;;;;;;;;;;5032967;28;20033;-62
2021/09/02 11:01:30;;;;;;;12.25;6.90;;;;;;;;;;5029459;28;20049;-63
2021/09/02 11:03:56;;;;;;;15.02;8.13;;;;;;;;;;5027958;28;20045;-63
2021/09/02 11:06:24;;;;;;;14.77;6.38;;;;;;;;;;5027761;28;20067;-62
2021/09/02 11:08:50;;;;;;;13.98;5.68;;;;;;;;;;5027938;28;20049;-62
2021/09/02 11:11:21;;;;;;;8.82;5.32;;;;;;;;;;5026606;28;20516;-62
2021/09/02 11:13:48;;;;;;;12.27;5.50;;;;;;;;;;5026864;28;20049;-63
2021/09/02 11:16:24;;;;;;;9.20;5.40;;;;;;;;;;5045480;28;20041;-63
2021/09/02 11:18:52;;;;;;;9.57;5.68;;;;;;;;;;5067453;28;20513;-63
2021/09/02 11:21:26;;;;;;;13.18;5.90;;;;;;;;;;5069119;22;20048;-64
2021/09/02 11:24:02;;;;;;;12.77;6.05;;;;;;;;;;5087957;22;20112;-64
2021/09/02 11:26:38;;;;;;;13.48;5.68;;;;;;;;;;5080528;28;20052;-62
2021/09/02 11:29:05;;;;;;;15.63;6.00;;;;;;;;;;5088273;28;20400;-64
2021/09/02 11:31:31;;;;;;;12.27;5.95;;;;;;;;;;5093709;28;20125;-64
2021/09/02 11:33:58;;;;;;;12.05;5.40;;;;;;;;;;5083096;28;20403;-63
2021/09/02 11:36:24;;;;;;;11.60;6.20;;;;;;;;;;5089209;28;20694;-63
2021/09/02 11:38:59;;;;;;;10.13;4.85;;;;;;;;;;5085313;28;20051;-63
2021/09/02 11:41:25;;;;;;;10.98;5.85;;;;;;;;;;5066703;28;20032;-64
2021/09/02 11:43:52;;;;;;;16.42;7.15;;;;;;;;;;5080152;28;20127;-64
2021/09/02 11:46:19;;;;;;;17.02;7.18;;;;;;;;;;5082250;28;20036;-64
2021/09/02 11:48:45;;;;;;;19.55;6.50;;;;;;;;;;5085825;28;20647;-63
2021/09/02 11:51:12;;;;;;;25.98;8.75;;;;;;;;;;5087000;28;20081;-63
2021/09/02 11:53:38;;;;;;;;;;;;;;;;;;5091983;28;20528;-63
2021/09/02 11:56:11;;;;;;;12.85;7.03;;;;;;;;;;5106181;28;20402;-64
2021/09/02 11:58:37;;;;;;;16.13;6.07;;;;;;;;;;5101200;28;20051;-63
2021/09/02 12:01:03;;;;;;;;;;;;;;;;;;5095461;28;20036;-63
2021/09/02 12:03:29;;;;;;;14.70;6.35;;;;;;;;;;5086339;28;19973;-63
2021/09/02 12:05:56;;;;;;;11.93;5.00;;;;;;;;;;5086575;28;20131;-63
2021/09/02 12:08:22;;;;;;;16.48;6.75;;;;;;;;;;5086522;28;20052;-64
2021/09/02 12:10:48;;;;;;;12.43;5.85;;;;;;;;;;5086450;28;20068;-62
2021/09/02 12:13:28;;;;;;;15.80;9.48;;;;;;;;;;5086458;28;20032;-63
2021/09/02 12:16:03;;;;;;;13.07;6.88;;;;;;;;;;5071103;28;20645;-63
2021/09/02 12:18:30;;;;;;;14.65;7.15;;;;;;;;;;5089355;28;20043;-62
2021/09/02 12:21:06;;;;;;;12.63;6.05;;;;;;;;;;5089921;28;20123;-63
2021/09/02 12:23:32;;;;;;;13.45;5.82;;;;;;;;;;5089911;28;20047;-63
2021/09/02 12:25:58;;;;;;;;;;;;;;;;;;5089842;28;20043;-64
2021/09/02 12:28:31;;;;;;;9.23;5.07;;;;;;;;;;5093713;28;19919;-64
2021/09/02 12:30:57;;;;;;;10.10;4.32;;;;;;;;;;5080539;28;20039;-63
2021/09/02 12:33:23;;;;;;;8.43;5.63;;;;;;;;;;5089471;28;20044;-63
2021/09/02 12:35:49;;;;;;;;;;;;;;;;;;5098137;28;20114;-63
2021/09/02 12:38:37;;;;;;;10.15;5.68;;;;;;;;;;5089652;28;19924;-62
2021/09/02 12:41:14;;;;;;;7.30;4.32;;;;;;;;;;5068998;28;20028;-63
2021/09/02 12:43:40;;;;;;;12.50;4.55;;;;;;;;;;5075574;28;20459;-63
2021/09/02 12:46:05;;;;;;;10.55;4.70;;;;;;;;;;5087083;28;20064;-63
2021/09/02 12:48:31;;;;;;;;;;;;;;;;;;5085332;28;20463;-63
2021/09/02 12:50:59;;;;;;;8.20;4.85;;;;;;;;;;5085757;28;20339;-62
2021/09/02 12:53:29;;;;;;;12.82;6.22;;;;;;;;;;5089361;28;20071;-62
2021/09/02 12:55:55;;;;;;;12.52;6.18;;;;;;;;;;5088472;28;20060;-62
2021/09/02 12:58:21;;;;;;;;;;;;;;;;;;5092460;28;20523;-62
2021/09/02 13:00:47;;;;;;;8.68;5.00;;;;;;;;;;5101084;28;20014;-62
2021/09/02 13:03:14;;;;;;;12.27;5.53;;;;;;;;;;5109309;28;20027;-63
2021/09/02 13:05:40;;;;;;;15.68;5.10;;;;;;;;;;5109683;28;20035;-63
2021/09/02 13:08:07;;;;;;;13.52;5.63;;;;;;;;;;5093617;28;20036;-63
2021/09/02 13:10:33;;;;;;;12.50;5.10;;;;;;;;;;5089007;28;20052;-64
2021/09/02 13:12:59;;;;;;;;;;;;;;;;;;5071268;28;20047;-63
2021/09/02 13:15:25;;;;;;;9.48;4.95;;;;;;;;;;5088450;28;19916;-63
2021/09/02 13:17:52;;;;;;;7.63;4.50;;;;;;;;;;5090406;28;20036;-65
2021/09/02 13:20:18;;;;;;;11.65;5.10;;;;;;;;;;5070791;28;20039;-65
2021/09/02 13:22:45;;;;;;;10.30;4.90;;;;;;;;;;5088868;28;20542;-64
2021/09/02 13:25:12;;;;;;;8.80;4.63;;;;;;;;;;5088931;28;20039;-65
2021/09/02 13:27:38;;;;;;;15.45;5.43;;;;;;;;;;5070119;28;20040;-65
2021/09/02 13:30:08;;;;;;;12.07;5.03;;;;;;;;;;5098331;28;20085;-64
2021/09/02 13:32:36;;;;;;;10.75;4.53;;;;;;;;;;5100010;28;20047;-63
2021/09/02 13:35:02;;;;;;;8.68;4.75;;;;;;;;;;5088599;28;20044;-64
2021/09/02 13:37:30;;;;;;;11.45;5.50;;;;;;;;;;5070058;28;20044;-65
2021/09/02 13:39:56;;;;;;;12.43;5.43;;;;;;;;;;5087456;28;20055;-64
2021/09/02 13:42:22;;;;;;;;;;;;;;;;;;5088169;28;20036;-65
2021/09/02 13:44:48;;;;;;;6.72;4.10;;;;;;;;;;5087821;28;20306;-62
2021/09/02 13:47:14;;;;;;;9.77;4.95;;;;;;;;;;5087809;28;20139;-63
2021/09/02 13:49:40;;;;;;;;;;;;;;;;;;5088362;28;20043;-63
2021/09/02 13:52:06;;;;;;;8.38;4.80;;;;;;;;;;5087436;28;19963;-63
2021/09/02 13:54:32;;;;;;;7.43;4.30;;;;;;;;;;5088007;28;20092;-63
2021/09/02 13:56:57;;;;;;;;;;;;;;;;;;5088029;28;20043;-63
2021/09/02 13:59:24;;;;;;;8.77;5.30;;;;;;;;;;5096335;28;19936;-63
2021/09/02 14:01:50;;;;;;;14.10;5.53;;;;;;;;;;5093681;28;20071;-62
2021/09/02 14:04:15;;;;;;;;;;;;;;;;;;5090689;28;20063;-62
2021/09/02 14:06:41;;;;;;;10.90;5.47;;;;;;;;;;5099462;28;19919;-62